sensor_id;sensor_type;location;lat;lon;timestamp;P1;durP1;ratioP1;P2;durP2;ratioP2
64791;SDS011;51226;47.504;19.074;2022-10-15T00:00:44;44.75;;;33.85;;
64791;SDS011;51226;47.504;19.074;2022-10-15T00:04:03;44.45;;;31.90;;
64791;SDS011;51226;47.504;19.074;2022-10-15T00:07:06;42.97;;;33.28;;
64791;SDS011;51226;47.504;19.074;2022-10-15T00:10:08;44.08;;;33.40;;
64791;SDS011;51226;47.504;19.074;2022-10-15T00:13:11;42.90;;;33.50;;
64791;SDS011;51226;47.504;19.074;2022-10-15T00:16:15;39.28;;;31.90;;
64791;SDS011;51226;47.504;19.074;2022-10-15T00:19:19;40.88;;;31.80;;
64791;SDS011;51226;47.504;19.074;2022-10-15T00:22:22;43.55;;;31.55;;
64791;SDS011;51226;47.504;19.074;2022-10-15T00:25:25;39.60;;;32.08;;
64791;SDS011;51226;47.504;19.074;2022-10-15T00:28:28;39.22;;;31.30;;
64791;SDS011;51226;47.504;19.074;2022-10-15T00:31:35;45.47;;;33.15;;
64791;SDS011;51226;47.504;19.074;2022-10-15T00:34:40;40.65;;;31.65;;
64791;SDS011;51226;47.504;19.074;2022-10-15T00:37:43;40.42;;;30.92;;
64791;SDS011;51226;47.504;19.074;2022-10-15T00:40:47;43.55;;;31.92;;
64791;SDS011;51226;47.504;19.074;2022-10-15T00:43:54;44.05;;;31.85;;
64791;SDS011;51226;47.504;19.074;2022-10-15T00:50:24;39.10;;;30.58;;
64791;SDS011;51226;47.504;19.074;2022-10-15T00:53:28;42.40;;;32.58;;
64791;SDS011;51226;47.504;19.074;2022-10-15T00:56:30;39.85;;;31.87;;
64791;SDS011;51226;47.504;19.074;2022-10-15T00:59:36;41.35;;;30.35;;
64791;SDS011;51226;47.504;19.074;2022-10-15T01:02:43;40.00;;;30.73;;
64791;SDS011;51226;47.504;19.074;2022-10-15T01:05:47;44.13;;;31.33;;
64791;SDS011;51226;47.504;19.074;2022-10-15T01:08:52;44.75;;;33.33;;
64791;SDS011;51226;47.504;19.074;2022-10-15T01:11:55;45.90;;;32.50;;
64791;SDS011;51226;47.504;19.074;2022-10-15T01:18:26;41.50;;;32.33;;
64791;SDS011;51226;47.504;19.074;2022-10-15T01:24:43;40.70;;;32.30;;
64791;SDS011;51226;47.504;19.074;2022-10-15T01:27:51;43.25;;;32.40;;
64791;SDS011;51226;47.504;19.074;2022-10-15T01:30:58;45.10;;;32.35;;
64791;SDS011;51226;47.504;19.074;2022-10-15T01:34:12;41.95;;;32.33;;
64791;SDS011;51226;47.504;19.074;2022-10-15T01:37:23;44.75;;;33.58;;
64791;SDS011;51226;47.504;19.074;2022-10-15T01:40:52;40.53;;;31.87;;
64791;SDS011;51226;47.504;19.074;2022-10-15T01:47:31;41.63;;;32.63;;
64791;SDS011;51226;47.504;19.074;2022-10-15T01:50:40;44.45;;;32.78;;
64791;SDS011;51226;47.504;19.074;2022-10-15T01:53:47;42.45;;;33.30;;
64791;SDS011;51226;47.504;19.074;2022-10-15T01:56:52;43.97;;;33.38;;
64791;SDS011;51226;47.504;19.074;2022-10-15T01:59:56;41.00;;;30.75;;
64791;SDS011;51226;47.504;19.074;2022-10-15T02:02:59;42.13;;;30.88;;
64791;SDS011;51226;47.504;19.074;2022-10-15T02:06:05;43.00;;;31.20;;
64791;SDS011;51226;47.504;19.074;2022-10-15T02:09:16;40.08;;;32.05;;
64791;SDS011;51226;47.504;19.074;2022-10-15T02:12:40;44.33;;;32.40;;
64791;SDS011;51226;47.504;19.074;2022-10-15T02:16:12;43.67;;;31.73;;
64791;SDS011;51226;47.504;19.074;2022-10-15T02:22:59;43.10;;;31.10;;
64791;SDS011;51226;47.504;19.074;2022-10-15T02:26:09;43.83;;;32.30;;
64791;SDS011;51226;47.504;19.074;2022-10-15T02:29:15;40.92;;;32.00;;
64791;SDS011;51226;47.504;19.074;2022-10-15T02:32:21;40.72;;;30.85;;
64791;SDS011;51226;47.504;19.074;2022-10-15T02:35:28;43.40;;;31.98;;
64791;SDS011;51226;47.504;19.074;2022-10-15T02:38:31;42.35;;;30.90;;
64791;SDS011;51226;47.504;19.074;2022-10-15T02:41:34;44.38;;;33.22;;
64791;SDS011;51226;47.504;19.074;2022-10-15T02:44:37;42.62;;;31.17;;
64791;SDS011;51226;47.504;19.074;2022-10-15T02:47:41;39.80;;;30.37;;
64791;SDS011;51226;47.504;19.074;2022-10-15T02:50:44;45.28;;;32.33;;
64791;SDS011;51226;47.504;19.074;2022-10-15T02:53:47;40.90;;;31.42;;
64791;SDS011;51226;47.504;19.074;2022-10-15T02:56:50;40.88;;;30.60;;
64791;SDS011;51226;47.504;19.074;2022-10-15T02:59:53;37.90;;;30.35;;
64791;SDS011;51226;47.504;19.074;2022-10-15T03:02:56;43.75;;;32.60;;
64791;SDS011;51226;47.504;19.074;2022-10-15T03:05:59;39.97;;;31.37;;
64791;SDS011;51226;47.504;19.074;2022-10-15T03:09:03;40.42;;;30.83;;
64791;SDS011;51226;47.504;19.074;2022-10-15T03:12:06;43.28;;;31.80;;
64791;SDS011;51226;47.504;19.074;2022-10-15T03:18:12;45.38;;;31.77;;
64791;SDS011;51226;47.504;19.074;2022-10-15T03:21:15;43.55;;;32.90;;
64791;SDS011;51226;47.504;19.074;2022-10-15T03:27:21;41.63;;;31.92;;
64791;SDS011;51226;47.504;19.074;2022-10-15T03:30:24;40.45;;;31.73;;
64791;SDS011;51226;47.504;19.074;2022-10-15T03:33:28;41.45;;;31.33;;
64791;SDS011;51226;47.504;19.074;2022-10-15T03:36:32;43.53;;;32.65;;
64791;SDS011;51226;47.504;19.074;2022-10-15T03:39:35;43.87;;;32.25;;
64791;SDS011;51226;47.504;19.074;2022-10-15T03:42:39;39.58;;;30.92;;
64791;SDS011;51226;47.504;19.074;2022-10-15T03:45:43;42.35;;;32.42;;
64791;SDS011;51226;47.504;19.074;2022-10-15T03:48:49;43.63;;;31.73;;
64791;SDS011;51226;47.504;19.074;2022-10-15T03:51:52;40.00;;;31.45;;
64791;SDS011;51226;47.504;19.074;2022-10-15T03:54:56;39.60;;;30.58;;
64791;SDS011;51226;47.504;19.074;2022-10-15T03:57:59;41.33;;;31.85;;
64791;SDS011;51226;47.504;19.074;2022-10-15T04:01:07;42.75;;;31.77;;
64791;SDS011;51226;47.504;19.074;2022-10-15T04:04:13;42.00;;;30.95;;
64791;SDS011;51226;47.504;19.074;2022-10-15T04:07:16;42.43;;;32.17;;
64791;SDS011;51226;47.504;19.074;2022-10-15T04:10:19;42.38;;;30.52;;
64791;SDS011;51226;47.504;19.074;2022-10-15T04:13:22;42.15;;;33.42;;
64791;SDS011;51226;47.504;19.074;2022-10-15T04:16:25;40.83;;;31.45;;
64791;SDS011;51226;47.504;19.074;2022-10-15T04:19:28;38.47;;;31.05;;
64791;SDS011;51226;47.504;19.074;2022-10-15T04:22:33;43.00;;;31.42;;
64791;SDS011;51226;47.504;19.074;2022-10-15T04:25:36;43.13;;;32.10;;
64791;SDS011;51226;47.504;19.074;2022-10-15T04:28:39;41.00;;;31.70;;
64791;SDS011;51226;47.504;19.074;2022-10-15T04:31:41;41.13;;;30.60;;
64791;SDS011;51226;47.504;19.074;2022-10-15T04:34:47;44.40;;;32.97;;
64791;SDS011;51226;47.504;19.074;2022-10-15T04:37:51;45.47;;;31.23;;
64791;SDS011;51226;47.504;19.074;2022-10-15T04:41:01;43.70;;;31.73;;
64791;SDS011;51226;47.504;19.074;2022-10-15T04:47:12;40.45;;;31.40;;
64791;SDS011;51226;47.504;19.074;2022-10-15T04:50:15;41.00;;;31.12;;
64791;SDS011;51226;47.504;19.074;2022-10-15T04:53:35;39.83;;;31.37;;
64791;SDS011;51226;47.504;19.074;2022-10-15T04:56:38;41.88;;;31.08;;
64791;SDS011;51226;47.504;19.074;2022-10-15T04:59:41;42.67;;;30.17;;
64791;SDS011;51226;47.504;19.074;2022-10-15T05:02:48;41.15;;;30.52;;
64791;SDS011;51226;47.504;19.074;2022-10-15T05:05:51;42.10;;;31.67;;
64791;SDS011;51226;47.504;19.074;2022-10-15T05:08:54;39.27;;;30.07;;
64791;SDS011;51226;47.504;19.074;2022-10-15T05:11:58;39.97;;;29.77;;
64791;SDS011;51226;47.504;19.074;2022-10-15T05:15:01;40.65;;;30.67;;
64791;SDS011;51226;47.504;19.074;2022-10-15T05:18:04;41.35;;;30.70;;
64791;SDS011;51226;47.504;19.074;2022-10-15T05:21:07;41.67;;;31.00;;
64791;SDS011;51226;47.504;19.074;2022-10-15T05:24:11;37.42;;;29.60;;
64791;SDS011;51226;47.504;19.074;2022-10-15T05:27:14;42.75;;;30.50;;
64791;SDS011;51226;47.504;19.074;2022-10-15T05:33:20;44.25;;;30.45;;
64791;SDS011;51226;47.504;19.074;2022-10-15T05:36:26;39.70;;;30.60;;
64791;SDS011;51226;47.504;19.074;2022-10-15T05:39:30;40.17;;;29.73;;
64791;SDS011;51226;47.504;19.074;2022-10-15T05:42:34;39.60;;;29.75;;
64791;SDS011;51226;47.504;19.074;2022-10-15T05:45:36;39.67;;;29.23;;
64791;SDS011;51226;47.504;19.074;2022-10-15T05:48:39;40.63;;;29.73;;
64791;SDS011;51226;47.504;19.074;2022-10-15T05:51:42;42.10;;;30.50;;
64791;SDS011;51226;47.504;19.074;2022-10-15T05:54:45;37.28;;;29.37;;
64791;SDS011;51226;47.504;19.074;2022-10-15T05:57:48;42.27;;;30.70;;
64791;SDS011;51226;47.504;19.074;2022-10-15T06:04:00;43.05;;;30.12;;
64791;SDS011;51226;47.504;19.074;2022-10-15T06:07:04;43.45;;;31.83;;
64791;SDS011;51226;47.504;19.074;2022-10-15T06:10:07;40.97;;;30.12;;
64791;SDS011;51226;47.504;19.074;2022-10-15T06:13:10;46.80;;;30.98;;
64791;SDS011;51226;47.504;19.074;2022-10-15T06:19:23;42.08;;;28.65;;
64791;SDS011;51226;47.504;19.074;2022-10-15T06:22:29;45.40;;;30.27;;
64791;SDS011;51226;47.504;19.074;2022-10-15T06:25:32;45.00;;;28.73;;
64791;SDS011;51226;47.504;19.074;2022-10-15T06:28:35;45.35;;;29.42;;
64791;SDS011;51226;47.504;19.074;2022-10-15T06:31:39;46.42;;;28.70;;
64791;SDS011;51226;47.504;19.074;2022-10-15T06:34:42;37.42;;;27.65;;
64791;SDS011;51226;47.504;19.074;2022-10-15T06:37:45;39.60;;;27.85;;
64791;SDS011;51226;47.504;19.074;2022-10-15T06:43:51;35.53;;;26.83;;
64791;SDS011;51226;47.504;19.074;2022-10-15T06:46:58;37.15;;;26.42;;
64791;SDS011;51226;47.504;19.074;2022-10-15T06:50:02;33.42;;;24.95;;
64791;SDS011;51226;47.504;19.074;2022-10-15T06:53:07;32.90;;;26.25;;
64791;SDS011;51226;47.504;19.074;2022-10-15T06:56:10;35.92;;;26.73;;
64791;SDS011;51226;47.504;19.074;2022-10-15T06:59:13;36.17;;;25.00;;
64791;SDS011;51226;47.504;19.074;2022-10-15T07:02:16;35.83;;;27.23;;
64791;SDS011;51226;47.504;19.074;2022-10-15T07:05:21;30.60;;;23.75;;
64791;SDS011;51226;47.504;19.074;2022-10-15T07:08:24;29.42;;;22.27;;
64791;SDS011;51226;47.504;19.074;2022-10-15T07:11:29;35.78;;;24.12;;
64791;SDS011;51226;47.504;19.074;2022-10-15T07:14:31;30.10;;;22.98;;
64791;SDS011;51226;47.504;19.074;2022-10-15T07:17:35;28.85;;;22.55;;
64791;SDS011;51226;47.504;19.074;2022-10-15T07:20:40;29.33;;;22.67;;
64791;SDS011;51226;47.504;19.074;2022-10-15T07:23:43;30.67;;;23.70;;
64791;SDS011;51226;47.504;19.074;2022-10-15T07:26:46;28.52;;;22.48;;
64791;SDS011;51226;47.504;19.074;2022-10-15T07:29:49;34.60;;;23.77;;
64791;SDS011;51226;47.504;19.074;2022-10-15T07:32:51;30.83;;;23.33;;
64791;SDS011;51226;47.504;19.074;2022-10-15T07:38:57;27.83;;;22.48;;
64791;SDS011;51226;47.504;19.074;2022-10-15T07:41:59;31.90;;;21.70;;
64791;SDS011;51226;47.504;19.074;2022-10-15T07:45:03;25.73;;;21.42;;
64791;SDS011;51226;47.504;19.074;2022-10-15T07:48:06;27.08;;;20.70;;
64791;SDS011;51226;47.504;19.074;2022-10-15T07:51:09;21.87;;;18.17;;
64791;SDS011;51226;47.504;19.074;2022-10-15T07:54:12;25.17;;;18.92;;
64791;SDS011;51226;47.504;19.074;2022-10-15T08:00:18;26.12;;;18.17;;
64791;SDS011;51226;47.504;19.074;2022-10-15T08:03:21;23.30;;;17.55;;
64791;SDS011;51226;47.504;19.074;2022-10-15T08:06:24;20.85;;;17.40;;
64791;SDS011;51226;47.504;19.074;2022-10-15T08:09:27;20.10;;;17.92;;
64791;SDS011;51226;47.504;19.074;2022-10-15T08:12:30;19.87;;;17.30;;
64791;SDS011;51226;47.504;19.074;2022-10-15T08:15:33;19.05;;;16.75;;
64791;SDS011;51226;47.504;19.074;2022-10-15T08:18:35;19.80;;;17.45;;
64791;SDS011;51226;47.504;19.074;2022-10-15T08:21:39;18.70;;;16.73;;
64791;SDS011;51226;47.504;19.074;2022-10-15T08:24:47;17.90;;;16.15;;
64791;SDS011;51226;47.504;19.074;2022-10-15T08:27:51;18.27;;;16.45;;
64791;SDS011;51226;47.504;19.074;2022-10-15T08:30:58;20.45;;;16.65;;
64791;SDS011;51226;47.504;19.074;2022-10-15T08:34:07;18.40;;;16.10;;
64791;SDS011;51226;47.504;19.074;2022-10-15T08:37:10;17.35;;;15.65;;
64791;SDS011;51226;47.504;19.074;2022-10-15T08:40:13;16.58;;;14.98;;
64791;SDS011;51226;47.504;19.074;2022-10-15T08:43:39;16.75;;;14.98;;
64791;SDS011;51226;47.504;19.074;2022-10-15T08:46:48;16.35;;;13.95;;
64791;SDS011;51226;47.504;19.074;2022-10-15T08:49:56;16.65;;;14.73;;
64791;SDS011;51226;47.504;19.074;2022-10-15T08:53:03;15.63;;;14.02;;
64791;SDS011;51226;47.504;19.074;2022-10-15T08:56:12;17.90;;;14.52;;
64791;SDS011;51226;47.504;19.074;2022-10-15T08:59:36;16.05;;;13.73;;
64791;SDS011;51226;47.504;19.074;2022-10-15T09:03:01;15.95;;;12.68;;
64791;SDS011;51226;47.504;19.074;2022-10-15T09:12:55;17.05;;;13.27;;
64791;SDS011;51226;47.504;19.074;2022-10-15T09:16:12;16.48;;;12.80;;
64791;SDS011;51226;47.504;19.074;2022-10-15T09:19:19;15.30;;;13.38;;
64791;SDS011;51226;47.504;19.074;2022-10-15T09:22:25;17.33;;;12.73;;
64791;SDS011;51226;47.504;19.074;2022-10-15T09:25:31;18.25;;;12.02;;
64791;SDS011;51226;47.504;19.074;2022-10-15T09:28:52;15.40;;;11.75;;
64791;SDS011;51226;47.504;19.074;2022-10-15T09:32:09;15.77;;;10.77;;
64791;SDS011;51226;47.504;19.074;2022-10-15T09:42:08;17.10;;;12.10;;
64791;SDS011;51226;47.504;19.074;2022-10-15T09:45:21;16.17;;;11.30;;
64791;SDS011;51226;47.504;19.074;2022-10-15T09:48:27;14.30;;;11.95;;
64791;SDS011;51226;47.504;19.074;2022-10-15T09:51:39;13.57;;;10.35;;
64791;SDS011;51226;47.504;19.074;2022-10-15T09:55:07;14.00;;;10.70;;
64791;SDS011;51226;47.504;19.074;2022-10-15T10:02:04;20.50;;;10.40;;
64791;SDS011;51226;47.504;19.074;2022-10-15T10:08:24;12.40;;;9.95;;
64791;SDS011;51226;47.504;19.074;2022-10-15T10:11:29;12.13;;;10.05;;
64791;SDS011;51226;47.504;19.074;2022-10-15T10:18:29;12.93;;;10.07;;
64791;SDS011;51226;47.504;19.074;2022-10-15T10:21:35;12.98;;;9.45;;
64791;SDS011;51226;47.504;19.074;2022-10-15T10:24:40;13.55;;;9.82;;
64791;SDS011;51226;47.504;19.074;2022-10-15T10:27:48;11.65;;;8.60;;
64791;SDS011;51226;47.504;19.074;2022-10-15T10:34:00;10.55;;;8.50;;
64791;SDS011;51226;47.504;19.074;2022-10-15T10:37:04;9.18;;;7.57;;
64791;SDS011;51226;47.504;19.074;2022-10-15T10:43:52;10.13;;;8.43;;
64791;SDS011;51226;47.504;19.074;2022-10-15T10:50:28;9.57;;;7.32;;
64791;SDS011;51226;47.504;19.074;2022-10-15T10:53:33;13.23;;;8.88;;
64791;SDS011;51226;47.504;19.074;2022-10-15T10:56:43;12.18;;;7.75;;
64791;SDS011;51226;47.504;19.074;2022-10-15T10:59:50;13.05;;;8.25;;
64791;SDS011;51226;47.504;19.074;2022-10-15T11:02:55;11.40;;;8.38;;
64791;SDS011;51226;47.504;19.074;2022-10-15T11:16:37;9.80;;;8.25;;
64791;SDS011;51226;47.504;19.074;2022-10-15T11:19:53;11.73;;;7.55;;
64791;SDS011;51226;47.504;19.074;2022-10-15T11:43:50;10.07;;;7.55;;
64791;SDS011;51226;47.504;19.074;2022-10-15T11:50:56;10.45;;;7.65;;
64791;SDS011;51226;47.504;19.074;2022-10-15T11:54:26;11.68;;;7.75;;
64791;SDS011;51226;47.504;19.074;2022-10-15T11:57:31;11.32;;;7.40;;
64791;SDS011;51226;47.504;19.074;2022-10-15T12:00:38;15.80;;;7.57;;
64791;SDS011;51226;47.504;19.074;2022-10-15T12:03:56;12.60;;;7.65;;
64791;SDS011;51226;47.504;19.074;2022-10-15T12:07:04;10.27;;;7.37;;
64791;SDS011;51226;47.504;19.074;2022-10-15T12:16:45;10.85;;;6.72;;
64791;SDS011;51226;47.504;19.074;2022-10-15T12:20:14;12.70;;;6.87;;
64791;SDS011;51226;47.504;19.074;2022-10-15T12:23:38;7.47;;;6.65;;
64791;SDS011;51226;47.504;19.074;2022-10-15T12:26:43;9.18;;;6.75;;
64791;SDS011;51226;47.504;19.074;2022-10-15T12:29:50;10.32;;;6.80;;
64791;SDS011;51226;47.504;19.074;2022-10-15T12:32:54;10.02;;;6.72;;
64791;SDS011;51226;47.504;19.074;2022-10-15T12:39:21;8.20;;;6.00;;
64791;SDS011;51226;47.504;19.074;2022-10-15T12:46:00;9.52;;;7.22;;
64791;SDS011;51226;47.504;19.074;2022-10-15T13:06:43;14.57;;;6.40;;
64791;SDS011;51226;47.504;19.074;2022-10-15T13:09:47;8.40;;;6.68;;
64791;SDS011;51226;47.504;19.074;2022-10-15T13:12:54;8.07;;;7.07;;
64791;SDS011;51226;47.504;19.074;2022-10-15T13:16:00;10.15;;;6.75;;
64791;SDS011;51226;47.504;19.074;2022-10-15T13:19:15;10.20;;;6.62;;
64791;SDS011;51226;47.504;19.074;2022-10-15T13:22:37;10.77;;;7.05;;
64791;SDS011;51226;47.504;19.074;2022-10-15T13:25:40;7.62;;;6.85;;
64791;SDS011;51226;47.504;19.074;2022-10-15T13:31:47;11.23;;;6.78;;
64791;SDS011;51226;47.504;19.074;2022-10-15T13:34:50;9.45;;;7.10;;
64791;SDS011;51226;47.504;19.074;2022-10-15T13:40:59;8.32;;;6.32;;
64791;SDS011;51226;47.504;19.074;2022-10-15T13:44:03;8.00;;;7.22;;
64791;SDS011;51226;47.504;19.074;2022-10-15T13:47:22;8.68;;;6.40;;
64791;SDS011;51226;47.504;19.074;2022-10-15T13:50:29;7.60;;;6.90;;
64791;SDS011;51226;47.504;19.074;2022-10-15T13:53:41;7.87;;;7.07;;
64791;SDS011;51226;47.504;19.074;2022-10-15T13:59:59;8.07;;;6.87;;
64791;SDS011;51226;47.504;19.074;2022-10-15T14:06:24;8.23;;;6.75;;
64791;SDS011;51226;47.504;19.074;2022-10-15T14:12:31;9.48;;;6.57;;
64791;SDS011;51226;47.504;19.074;2022-10-15T14:15:55;8.98;;;6.32;;
64791;SDS011;51226;47.504;19.074;2022-10-15T14:19:17;7.90;;;6.43;;
64791;SDS011;51226;47.504;19.074;2022-10-15T14:22:23;9.05;;;6.70;;
64791;SDS011;51226;47.504;19.074;2022-10-15T14:25:28;7.10;;;6.40;;
64791;SDS011;51226;47.504;19.074;2022-10-15T14:28:32;10.43;;;6.90;;
64791;SDS011;51226;47.504;19.074;2022-10-15T14:31:39;8.45;;;6.55;;
64791;SDS011;51226;47.504;19.074;2022-10-15T14:34:47;9.38;;;6.47;;
64791;SDS011;51226;47.504;19.074;2022-10-15T14:41:25;7.93;;;6.45;;
64791;SDS011;51226;47.504;19.074;2022-10-15T14:44:42;7.65;;;6.62;;
64791;SDS011;51226;47.504;19.074;2022-10-15T14:47:53;9.93;;;6.62;;
64791;SDS011;51226;47.504;19.074;2022-10-15T14:50:59;9.85;;;7.15;;
64791;SDS011;51226;47.504;19.074;2022-10-15T14:54:11;10.73;;;8.32;;
64791;SDS011;51226;47.504;19.074;2022-10-15T14:57:23;11.43;;;6.87;;
64791;SDS011;51226;47.504;19.074;2022-10-15T15:00:31;7.97;;;7.18;;
64791;SDS011;51226;47.504;19.074;2022-10-15T15:03:42;9.35;;;7.55;;
64791;SDS011;51226;47.504;19.074;2022-10-15T15:06:49;7.70;;;6.95;;
64791;SDS011;51226;47.504;19.074;2022-10-15T15:09:54;10.75;;;7.37;;
64791;SDS011;51226;47.504;19.074;2022-10-15T15:12:57;8.18;;;7.25;;
64791;SDS011;51226;47.504;19.074;2022-10-15T15:16:01;10.15;;;7.40;;
64791;SDS011;51226;47.504;19.074;2022-10-15T15:19:06;8.25;;;7.03;;
64791;SDS011;51226;47.504;19.074;2022-10-15T15:22:10;10.40;;;7.87;;
64791;SDS011;51226;47.504;19.074;2022-10-15T15:25:29;13.95;;;9.52;;
64791;SDS011;51226;47.504;19.074;2022-10-15T15:28:35;9.95;;;7.65;;
64791;SDS011;51226;47.504;19.074;2022-10-15T15:31:38;9.13;;;6.90;;
64791;SDS011;51226;47.504;19.074;2022-10-15T15:37:44;11.30;;;8.05;;
64791;SDS011;51226;47.504;19.074;2022-10-15T15:40:47;11.18;;;7.55;;
64791;SDS011;51226;47.504;19.074;2022-10-15T15:43:54;10.90;;;7.47;;
64791;SDS011;51226;47.504;19.074;2022-10-15T15:46:56;9.40;;;7.25;;
64791;SDS011;51226;47.504;19.074;2022-10-15T15:49:59;11.10;;;7.32;;
64791;SDS011;51226;47.504;19.074;2022-10-15T15:53:02;9.88;;;7.28;;
64791;SDS011;51226;47.504;19.074;2022-10-15T15:56:05;9.63;;;7.15;;
64791;SDS011;51226;47.504;19.074;2022-10-15T16:02:11;12.82;;;7.37;;
64791;SDS011;51226;47.504;19.074;2022-10-15T16:05:14;11.07;;;7.95;;
64791;SDS011;51226;47.504;19.074;2022-10-15T16:08:18;8.57;;;7.40;;
64791;SDS011;51226;47.504;19.074;2022-10-15T16:14:24;8.70;;;7.45;;
64791;SDS011;51226;47.504;19.074;2022-10-15T16:17:26;12.63;;;8.52;;
64791;SDS011;51226;47.504;19.074;2022-10-15T16:23:32;12.55;;;7.25;;
64791;SDS011;51226;47.504;19.074;2022-10-15T16:26:34;10.75;;;8.20;;
64791;SDS011;51226;47.504;19.074;2022-10-15T16:29:38;10.60;;;7.97;;
64791;SDS011;51226;47.504;19.074;2022-10-15T16:32:40;7.87;;;6.95;;
64791;SDS011;51226;47.504;19.074;2022-10-15T16:38:51;10.45;;;8.10;;
64791;SDS011;51226;47.504;19.074;2022-10-15T16:41:55;8.90;;;7.95;;
64791;SDS011;51226;47.504;19.074;2022-10-15T16:44:58;12.55;;;8.68;;
64791;SDS011;51226;47.504;19.074;2022-10-15T16:48:00;9.13;;;8.15;;
64791;SDS011;51226;47.504;19.074;2022-10-15T16:51:07;11.88;;;8.40;;
64791;SDS011;51226;47.504;19.074;2022-10-15T16:54:13;11.15;;;8.90;;
64791;SDS011;51226;47.504;19.074;2022-10-15T16:57:17;12.93;;;9.60;;
64791;SDS011;51226;47.504;19.074;2022-10-15T17:00:20;10.30;;;9.20;;
64791;SDS011;51226;47.504;19.074;2022-10-15T17:03:23;17.73;;;9.43;;
64791;SDS011;51226;47.504;19.074;2022-10-15T17:09:31;13.10;;;10.38;;
64791;SDS011;51226;47.504;19.074;2022-10-15T17:12:34;13.60;;;10.57;;
64791;SDS011;51226;47.504;19.074;2022-10-15T17:15:37;15.18;;;11.82;;
64791;SDS011;51226;47.504;19.074;2022-10-15T17:18:40;16.35;;;12.50;;
64791;SDS011;51226;47.504;19.074;2022-10-15T17:21:44;25.83;;;17.70;;
64791;SDS011;51226;47.504;19.074;2022-10-15T17:24:48;23.45;;;19.70;;
64791;SDS011;51226;47.504;19.074;2022-10-15T17:27:51;30.52;;;21.75;;
64791;SDS011;51226;47.504;19.074;2022-10-15T17:31:01;29.37;;;21.80;;
64791;SDS011;51226;47.504;19.074;2022-10-15T17:34:09;31.58;;;21.23;;
64791;SDS011;51226;47.504;19.074;2022-10-15T17:37:13;26.37;;;18.95;;
64791;SDS011;51226;47.504;19.074;2022-10-15T17:40:16;22.20;;;17.95;;
64791;SDS011;51226;47.504;19.074;2022-10-15T17:46:23;21.95;;;15.20;;
64791;SDS011;51226;47.504;19.074;2022-10-15T17:49:27;21.73;;;14.80;;
64791;SDS011;51226;47.504;19.074;2022-10-15T17:52:31;23.35;;;14.85;;
64791;SDS011;51226;47.504;19.074;2022-10-15T17:55:34;20.23;;;13.02;;
64791;SDS011;51226;47.504;19.074;2022-10-15T18:01:41;19.70;;;12.68;;
64791;SDS011;51226;47.504;19.074;2022-10-15T18:05:00;18.40;;;12.37;;
64791;SDS011;51226;47.504;19.074;2022-10-15T18:08:03;14.20;;;10.90;;
64791;SDS011;51226;47.504;19.074;2022-10-15T18:11:06;16.52;;;11.25;;
64791;SDS011;51226;47.504;19.074;2022-10-15T18:14:09;14.00;;;10.98;;
64791;SDS011;51226;47.504;19.074;2022-10-15T18:23:21;13.85;;;10.70;;
64791;SDS011;51226;47.504;19.074;2022-10-15T18:26:25;12.93;;;10.27;;
64791;SDS011;51226;47.504;19.074;2022-10-15T18:29:28;13.60;;;9.77;;
64791;SDS011;51226;47.504;19.074;2022-10-15T18:32:32;17.48;;;10.82;;
64791;SDS011;51226;47.504;19.074;2022-10-15T18:35:40;12.98;;;9.63;;
64791;SDS011;51226;47.504;19.074;2022-10-15T18:38:43;19.20;;;11.30;;
64791;SDS011;51226;47.504;19.074;2022-10-15T18:41:46;13.98;;;10.98;;
64791;SDS011;51226;47.504;19.074;2022-10-15T18:44:48;14.48;;;11.18;;
64791;SDS011;51226;47.504;19.074;2022-10-15T18:47:52;14.38;;;11.57;;
64791;SDS011;51226;47.504;19.074;2022-10-15T18:50:54;17.20;;;12.35;;
64791;SDS011;51226;47.504;19.074;2022-10-15T18:53:58;12.02;;;10.60;;
64791;SDS011;51226;47.504;19.074;2022-10-15T18:57:01;18.75;;;11.75;;
64791;SDS011;51226;47.504;19.074;2022-10-15T19:00:05;15.38;;;11.82;;
64791;SDS011;51226;47.504;19.074;2022-10-15T19:03:08;13.70;;;11.35;;
64791;SDS011;51226;47.504;19.074;2022-10-15T19:06:11;17.40;;;11.93;;
64791;SDS011;51226;47.504;19.074;2022-10-15T19:09:21;17.33;;;13.05;;
64791;SDS011;51226;47.504;19.074;2022-10-15T19:12:28;21.00;;;12.50;;
64791;SDS011;51226;47.504;19.074;2022-10-15T19:15:30;16.95;;;12.25;;
64791;SDS011;51226;47.504;19.074;2022-10-15T19:18:37;14.80;;;11.55;;
64791;SDS011;51226;47.504;19.074;2022-10-15T19:21:39;15.68;;;11.48;;
64791;SDS011;51226;47.504;19.074;2022-10-15T19:24:42;20.48;;;12.55;;
64791;SDS011;51226;47.504;19.074;2022-10-15T19:27:45;18.52;;;11.70;;
64791;SDS011;51226;47.504;19.074;2022-10-15T19:30:58;15.50;;;12.68;;
64791;SDS011;51226;47.504;19.074;2022-10-15T19:34:02;15.15;;;13.55;;
64791;SDS011;51226;47.504;19.074;2022-10-15T19:37:06;21.92;;;13.10;;
64791;SDS011;51226;47.504;19.074;2022-10-15T19:40:21;17.52;;;13.40;;
64791;SDS011;51226;47.504;19.074;2022-10-15T19:43:27;18.37;;;13.10;;
64791;SDS011;51226;47.504;19.074;2022-10-15T19:46:29;19.42;;;13.60;;
64791;SDS011;51226;47.504;19.074;2022-10-15T19:49:32;17.85;;;13.48;;
64791;SDS011;51226;47.504;19.074;2022-10-15T19:52:35;16.08;;;13.02;;
64791;SDS011;51226;47.504;19.074;2022-10-15T19:55:38;17.17;;;13.15;;
64791;SDS011;51226;47.504;19.074;2022-10-15T19:58:41;17.90;;;12.73;;
64791;SDS011;51226;47.504;19.074;2022-10-15T20:04:47;15.88;;;12.23;;
64791;SDS011;51226;47.504;19.074;2022-10-15T20:07:49;16.25;;;12.52;;
64791;SDS011;51226;47.504;19.074;2022-10-15T20:10:52;18.67;;;12.93;;
64791;SDS011;51226;47.504;19.074;2022-10-15T20:13:57;18.08;;;12.45;;
64791;SDS011;51226;47.504;19.074;2022-10-15T20:17:00;21.20;;;13.13;;
64791;SDS011;51226;47.504;19.074;2022-10-15T20:23:07;18.92;;;13.50;;
64791;SDS011;51226;47.504;19.074;2022-10-15T20:26:28;18.20;;;12.88;;
64791;SDS011;51226;47.504;19.074;2022-10-15T20:29:32;16.25;;;12.30;;
64791;SDS011;51226;47.504;19.074;2022-10-15T20:32:34;16.30;;;12.73;;
64791;SDS011;51226;47.504;19.074;2022-10-15T20:35:38;19.17;;;12.70;;
64791;SDS011;51226;47.504;19.074;2022-10-15T20:38:42;19.30;;;12.55;;
64791;SDS011;51226;47.504;19.074;2022-10-15T20:41:45;18.62;;;12.52;;
64791;SDS011;51226;47.504;19.074;2022-10-15T20:44:48;15.38;;;12.05;;
64791;SDS011;51226;47.504;19.074;2022-10-15T20:50:54;14.43;;;12.85;;
64791;SDS011;51226;47.504;19.074;2022-10-15T20:53:57;14.60;;;12.02;;
64791;SDS011;51226;47.504;19.074;2022-10-15T20:57:01;15.75;;;12.70;;
64791;SDS011;51226;47.504;19.074;2022-10-15T21:00:05;14.45;;;12.50;;
64791;SDS011;51226;47.504;19.074;2022-10-15T21:03:09;17.48;;;12.73;;
64791;SDS011;51226;47.504;19.074;2022-10-15T21:09:14;18.73;;;13.20;;
64791;SDS011;51226;47.504;19.074;2022-10-15T21:12:17;15.52;;;13.02;;
64791;SDS011;51226;47.504;19.074;2022-10-15T21:15:20;20.30;;;13.60;;
64791;SDS011;51226;47.504;19.074;2022-10-15T21:18:23;18.33;;;12.80;;
64791;SDS011;51226;47.504;19.074;2022-10-15T21:21:27;17.35;;;13.52;;
64791;SDS011;51226;47.504;19.074;2022-10-15T21:27:34;16.55;;;12.82;;